Portada
METAR-TAF:

METAR-TAF

Aeropuertos :

Maragheh, Irán

latitud: 37-20-55N, longitud: 046-07-35E, altitud: 1340 m

Observación

El informe se hizo hace 2 horas y 12 minutos, a las 21:00 UTC
Viento 4 kt del sur-sureste
Temperatura -2°C
Humedad 93%
Presión 1018 hPa
Visibilidad: 1600 m
Cielo nuboso a una altura de 1900 ft
Nubes dispersas a una altura de 3400 ft
Cielo cubierto a una altura de 8000 ft
poca nieve, neblina

METAR: OITM 242100Z 16004KT 1600 -SN BR BKN019 SCT034 OVC080 M02/M03 Q1018

Hora: 02:42 (23:12 UTC)


TAF: falta

Observaciones y pronósticos meteorológicos de más de 4000 aeropuertos (mensajes METAR y TAF).

Los puntos amarillos y rojos representan las estaciones disponibles.

Ponga el ratón en el punto deseado para ver el nombre de la estación.

Haga clic para ver las observaciones y los pronósticos meteorológicos.

Para cambiar el mapa : haga clic en los botones verdes con una cruz de color negro para hacer un zoom, en el botón verde con un guión para alejar o en las flechas verdes para mapas adyacentes.


METAR-TAF: